createdAt,value
2022-08-17T00:03:51.923Z,13.47
2022-08-17T00:06:54.086Z,13.42
2022-08-17T00:09:57.579Z,13.56
2022-08-17T00:13:00.010Z,13.20
2022-08-17T00:16:06.063Z,13.42
2022-08-17T00:19:12.024Z,13.14
2022-08-17T00:22:30.908Z,13.55
2022-08-17T00:25:36.332Z,13.44
2022-08-17T00:28:38.968Z,13.48
2022-08-17T00:31:41.062Z,13.27
2022-08-17T00:34:43.141Z,13.21
2022-08-17T00:37:45.221Z,13.36
2022-08-17T00:40:55.886Z,13.37
2022-08-17T00:44:02.359Z,13.13
2022-08-17T00:47:04.537Z,13.52
2022-08-17T00:50:09.035Z,13.46
2022-08-17T00:53:11.128Z,13.32
2022-08-17T00:56:18.939Z,13.41
2022-08-17T00:59:22.688Z,13.23
2022-08-17T01:02:24.803Z,13.49
2022-08-17T01:05:29.176Z,13.20
2022-08-17T01:08:31.863Z,13.24
2022-08-17T01:11:36.235Z,13.23
2022-08-17T01:14:39.095Z,13.23
2022-08-17T01:17:41.251Z,13.36
2022-08-17T01:20:49.607Z,13.40
2022-08-17T01:23:51.702Z,13.33
2022-08-17T01:26:53.803Z,13.16
2022-08-17T01:30:03.980Z,13.17
2022-08-17T01:33:06.084Z,13.24
2022-08-17T01:36:08.421Z,13.38
2022-08-17T01:39:18.647Z,13.29
2022-08-17T01:42:48.652Z,13.22
2022-08-17T01:46:02.624Z,13.44
2022-08-17T01:49:10.704Z,13.17
2022-08-17T01:52:12.860Z,13.28
2022-08-17T01:55:16.727Z,13.10
2022-08-17T01:58:19.590Z,13.35
2022-08-17T02:01:26.944Z,13.13
2022-08-17T02:04:29.081Z,13.32
2022-08-17T02:07:31.194Z,13.08
2022-08-17T02:10:34.196Z,13.21
2022-08-17T02:13:37.938Z,12.94
2022-08-17T02:16:40.633Z,13.21
2022-08-17T02:19:43.009Z,13.03
2022-08-17T02:22:45.909Z,13.06
2022-08-17T02:25:48.701Z,13.10
2022-08-17T02:28:51.490Z,12.83
2022-08-17T02:31:53.655Z,12.89
2022-08-17T02:35:00.040Z,12.94
2022-08-17T02:38:02.305Z,12.82
2022-08-17T02:41:04.633Z,12.70
2022-08-17T02:44:06.936Z,12.69
2022-08-17T02:47:09.543Z,12.73
2022-08-17T02:50:13.259Z,12.61
2022-08-17T02:53:15.730Z,12.53
2022-08-17T02:56:17.846Z,12.45
2022-08-17T02:59:19.964Z,12.39
2022-08-17T03:02:22.043Z,12.64
2022-08-17T03:05:25.948Z,12.54
2022-08-17T03:08:28.347Z,12.58
2022-08-17T03:11:30.512Z,12.49
2022-08-17T03:14:32.683Z,12.64
2022-08-17T03:17:34.743Z,12.57
2022-08-17T03:20:37.008Z,12.60
2022-08-17T03:23:41.221Z,12.47
2022-08-17T03:26:43.956Z,12.44
2022-08-17T03:29:46.095Z,12.53
2022-08-17T03:32:49.886Z,12.72
2022-08-17T03:35:52.159Z,12.69
2022-08-17T03:38:54.544Z,12.60
2022-08-17T03:42:09.144Z,12.44
2022-08-17T03:45:49.526Z,12.56
2022-08-17T03:49:12.783Z,12.58
2022-08-17T03:52:33.206Z,12.53
2022-08-17T03:55:55.076Z,12.71
2022-08-17T03:58:57.178Z,12.47
2022-08-17T04:02:04.989Z,12.66
2022-08-17T04:05:07.655Z,12.73
2022-08-17T04:08:10.124Z,12.69
2022-08-17T04:11:12.207Z,12.94
2022-08-17T04:14:14.348Z,12.63
2022-08-17T04:17:16.417Z,12.49
2022-08-17T04:20:19.908Z,12.58
2022-08-17T04:23:21.967Z,12.60
2022-08-17T04:26:53.598Z,12.60
2022-08-17T04:29:54.607Z,12.58
2022-08-17T04:33:28.281Z,12.30
2022-08-17T04:36:30.384Z,12.43
2022-08-17T04:39:33.908Z,12.63
2022-08-17T04:42:36.161Z,12.43
2022-08-17T04:45:55.686Z,12.69
2022-08-17T04:48:59.203Z,12.74
2022-08-17T04:52:04.375Z,12.60
2022-08-17T04:55:07.539Z,12.49
2022-08-17T04:58:09.861Z,12.66
2022-08-17T05:01:12.204Z,12.61
2022-08-17T05:04:34.658Z,12.70
2022-08-17T05:07:37.480Z,12.57
2022-08-17T05:10:45.353Z,12.65
2022-08-17T05:13:50.274Z,12.72
2022-08-17T05:16:52.650Z,12.76
2022-08-17T05:19:55.121Z,12.62
2022-08-17T05:23:00.831Z,12.63
2022-08-17T05:26:03.123Z,12.57
2022-08-17T05:29:08.399Z,12.54
2022-08-17T05:32:37.897Z,12.39
2022-08-17T05:35:36.334Z,12.74
2022-08-17T05:38:38.455Z,12.82
2022-08-17T05:41:40.951Z,12.73
2022-08-17T05:44:43.036Z,12.73
2022-08-17T05:47:45.443Z,12.57
2022-08-17T05:51:20.616Z,12.72
2022-08-17T05:54:46.904Z,12.64
2022-08-17T05:58:22.723Z,12.99
2022-08-17T06:01:40.534Z,12.78
2022-08-17T06:05:14.470Z,12.90
2022-08-17T06:08:51.871Z,12.49
2022-08-17T06:12:25.780Z,12.88
2022-08-17T06:15:50.064Z,12.76
2022-08-17T06:19:30.709Z,13.05
2022-08-17T06:22:34.921Z,13.03
2022-08-17T06:25:49.764Z,12.68
2022-08-17T06:29:03.560Z,12.76
2022-08-17T06:32:12.741Z,12.66
2022-08-17T06:35:19.385Z,12.79
2022-08-17T06:38:48.193Z,12.53
2022-08-17T06:42:02.303Z,12.47
2022-08-17T06:45:39.354Z,12.19
2022-08-17T06:48:47.218Z,12.35
2022-08-17T06:52:45.763Z,12.09
2022-08-17T06:56:13.601Z,12.54
2022-08-17T06:59:19.567Z,12.06
2022-08-17T07:02:52.680Z,12.32
2022-08-17T07:05:59.526Z,12.41
2022-08-17T07:09:31.412Z,12.12
2022-08-17T07:12:37.964Z,12.61
2022-08-17T07:15:42.581Z,12.33
2022-08-17T07:18:44.688Z,12.05
2022-08-17T07:22:12.765Z,12.70
2022-08-17T07:25:18.508Z,12.57
2022-08-17T07:28:23.128Z,12.54
2022-08-17T07:31:25.691Z,12.27
2022-08-17T07:34:29.139Z,12.36
2022-08-17T07:37:33.397Z,12.20
2022-08-17T07:40:44.116Z,12.22
2022-08-17T07:43:48.428Z,12.04
2022-08-17T07:47:10.927Z,12.45
2022-08-17T07:50:29.337Z,12.18
2022-08-17T07:53:32.077Z,12.25
2022-08-17T07:56:38.399Z,12.65
2022-08-17T08:00:01.928Z,12.63
2022-08-17T08:03:31.922Z,13.09
2022-08-17T08:06:37.926Z,13.39
2022-08-17T08:09:47.175Z,13.84
2022-08-17T08:12:53.744Z,14.03
2022-08-17T08:16:25.615Z,14.20
2022-08-17T08:19:29.347Z,14.36
2022-08-17T08:23:09.829Z,14.82
2022-08-17T08:26:18.799Z,15.30
2022-08-17T08:29:55.270Z,15.92
2022-08-17T08:33:46.470Z,15.57
2022-08-17T08:37:17.575Z,15.23
2022-08-17T08:40:55.971Z,16.26
2022-08-17T08:44:17.163Z,17.01
2022-08-17T08:47:35.554Z,15.71
2022-08-17T08:51:06.484Z,15.58
2022-08-17T08:54:53.934Z,16.30
2022-08-17T08:58:31.583Z,16.07
2022-08-17T09:01:52.141Z,16.36
2022-08-17T09:05:26.106Z,16.66
2022-08-17T09:08:50.103Z,16.53
2022-08-17T09:12:10.111Z,18.16
2022-08-17T09:15:32.110Z,17.51
2022-08-17T09:19:00.093Z,18.23
2022-08-17T09:22:36.613Z,19.07
2022-08-17T09:25:55.336Z,18.20
2022-08-17T09:29:02.982Z,17.90
2022-08-17T09:32:17.721Z,18.90
2022-08-17T09:35:36.484Z,18.44
2022-08-17T09:39:02.100Z,18.94
2022-08-17T09:42:16.220Z,20.48
2022-08-17T09:45:24.129Z,19.13
2022-08-17T09:48:48.445Z,19.72
2022-08-17T09:52:26.098Z,18.65
2022-08-17T09:55:59.393Z,18.48
2022-08-17T09:59:44.815Z,17.49
2022-08-17T10:03:30.782Z,17.50
2022-08-17T10:07:05.252Z,17.76
2022-08-17T10:10:21.347Z,19.09
2022-08-17T10:13:53.348Z,19.30
2022-08-17T10:17:00.835Z,19.76
2022-08-17T10:20:34.077Z,19.72
2022-08-17T10:23:56.264Z,19.84
2022-08-17T10:27:00.736Z,19.62
2022-08-17T10:30:06.458Z,19.16
2022-08-17T10:33:16.715Z,19.84
2022-08-17T10:36:54.742Z,19.71
2022-08-17T10:40:21.424Z,19.36
2022-08-17T10:44:36.702Z,19.01
2022-08-17T10:47:17.876Z,19.81
2022-08-17T10:50:46.167Z,19.97
2022-08-17T10:53:49.404Z,20.25
2022-08-17T10:56:58.014Z,20.63
2022-08-17T11:00:24.325Z,19.93
2022-08-17T11:03:32.941Z,19.70
2022-08-17T11:06:37.899Z,19.69
2022-08-17T11:10:13.625Z,20.73
2022-08-17T11:13:30.615Z,19.97
2022-08-17T11:16:48.111Z,21.17
2022-08-17T11:20:19.737Z,20.89
2022-08-17T11:23:55.455Z,19.92
2022-08-17T11:27:05.680Z,20.71
2022-08-17T11:30:41.033Z,20.30
2022-08-17T11:33:52.431Z,20.68
2022-08-17T11:37:54.933Z,20.91
2022-08-17T11:41:12.987Z,20.62
2022-08-17T11:44:44.104Z,21.62
2022-08-17T11:48:27.085Z,21.28
2022-08-17T11:52:01.335Z,22.51
2022-08-17T11:55:31.948Z,22.16
2022-08-17T11:58:29.932Z,21.41
2022-08-17T12:01:31.952Z,22.49
2022-08-17T12:04:35.014Z,23.25
2022-08-17T12:07:42.988Z,21.73
2022-08-17T12:11:00.746Z,22.51
2022-08-17T12:14:02.869Z,22.55
2022-08-17T12:17:06.662Z,23.28
2022-08-17T12:20:18.176Z,22.52
2022-08-17T12:23:41.996Z,23.63
2022-08-17T12:26:53.577Z,23.05
2022-08-17T12:29:55.773Z,24.02
2022-08-17T12:32:58.253Z,24.25
2022-08-17T12:36:03.446Z,24.53
2022-08-17T12:39:14.228Z,23.91
2022-08-17T12:42:37.497Z,24.25
2022-08-17T12:45:40.135Z,23.26
2022-08-17T12:48:59.668Z,24.69
2022-08-17T12:52:26.648Z,24.36
2022-08-17T12:55:32.492Z,24.51
2022-08-17T12:58:54.291Z,24.73
2022-08-17T13:01:56.723Z,25.34
2022-08-17T13:05:00.988Z,24.15
2022-08-17T13:08:15.640Z,24.67
2022-08-17T13:11:24.208Z,25.86
2022-08-17T13:14:26.616Z,25.43
2022-08-17T13:17:32.499Z,24.70
2022-08-17T13:20:34.899Z,25.91
2022-08-17T13:23:37.032Z,26.14
2022-08-17T13:27:02.155Z,25.37
2022-08-17T13:30:12.220Z,26.46
2022-08-17T13:33:43.360Z,27.20
2022-08-17T13:36:48.847Z,26.56
2022-08-17T13:40:18.931Z,27.82
2022-08-17T13:43:46.176Z,27.64
2022-08-17T13:46:52.521Z,28.45
2022-08-17T13:49:59.215Z,28.29
2022-08-17T13:53:01.431Z,27.72
2022-08-17T13:56:38.338Z,26.86
2022-08-17T13:59:54.706Z,28.43
2022-08-17T14:02:58.910Z,27.09
2022-08-17T14:06:01.672Z,27.30
2022-08-17T14:09:04.861Z,29.06
2022-08-17T14:12:10.879Z,29.19
2022-08-17T14:15:15.324Z,29.79
2022-08-17T14:18:19.004Z,28.76
2022-08-17T14:21:45.463Z,29.75
2022-08-17T14:24:47.823Z,29.83
2022-08-17T14:27:53.407Z,29.11
2022-08-17T14:30:56.055Z,30.73
2022-08-17T14:33:59.019Z,31.95
2022-08-17T14:37:01.149Z,31.17
2022-08-17T14:40:08.431Z,30.94
2022-08-17T14:43:10.597Z,30.05
2022-08-17T14:46:12.747Z,27.27
2022-08-17T14:49:16.146Z,28.45
2022-08-17T14:52:21.602Z,25.86
2022-08-17T14:55:23.843Z,28.84
2022-08-17T14:58:26.095Z,31.37
2022-08-17T15:01:28.943Z,30.22
2022-08-17T15:04:31.166Z,30.63
2022-08-17T15:07:33.303Z,30.08
2022-08-17T15:10:35.918Z,29.97
2022-08-17T15:13:38.096Z,28.89
2022-08-17T15:16:55.250Z,30.75
2022-08-17T15:19:57.529Z,28.64
2022-08-17T15:22:59.739Z,30.36
2022-08-17T15:26:01.876Z,29.88
2022-08-17T15:29:04.140Z,29.10
2022-08-17T15:32:06.705Z,29.46
2022-08-17T15:35:11.367Z,29.50
2022-08-17T15:38:14.379Z,29.03
2022-08-17T15:41:18.323Z,29.38
2022-08-17T15:44:20.564Z,29.37
2022-08-17T15:47:22.980Z,29.90
2022-08-17T15:50:25.586Z,30.52
2022-08-17T15:53:27.736Z,30.17
2022-08-17T15:56:31.387Z,30.52
2022-08-17T15:59:34.924Z,29.68
2022-08-17T16:03:45.452Z,30.32
2022-08-17T16:06:00.294Z,31.25
2022-08-17T16:09:02.884Z,30.88
2022-08-17T16:12:16.789Z,31.03
2022-08-17T16:15:19.181Z,30.66
2022-08-17T16:18:26.471Z,29.95
2022-08-17T16:21:30.008Z,30.25
2022-08-17T16:24:57.202Z,31.87
2022-08-17T16:28:00.058Z,30.73
2022-08-17T16:31:02.193Z,30.87
2022-08-17T16:34:16.912Z,30.20
2022-08-17T16:37:20.656Z,28.52
2022-08-17T16:40:23.703Z,30.63
2022-08-17T16:43:25.960Z,31.12
2022-08-17T16:46:29.235Z,31.49
2022-08-17T16:49:37.757Z,30.04
2022-08-17T16:52:40.599Z,30.54
2022-08-17T16:55:43.424Z,30.15
2022-08-17T16:58:46.223Z,30.54
2022-08-17T17:01:53.325Z,30.24
2022-08-17T17:05:25.243Z,30.51
2022-08-17T17:08:30.381Z,30.07
2022-08-17T17:11:40.940Z,30.28
2022-08-17T17:14:44.135Z,29.92
2022-08-17T17:17:47.781Z,29.88
2022-08-17T17:20:56.466Z,27.42
2022-08-17T17:24:06.897Z,28.39
2022-08-17T17:27:16.707Z,27.43
2022-08-17T17:30:42.602Z,26.31
2022-08-17T17:33:56.737Z,26.12
2022-08-17T17:37:02.149Z,26.64
2022-08-17T17:40:26.807Z,25.81
2022-08-17T17:43:38.758Z,25.01
2022-08-17T17:46:50.699Z,24.36
2022-08-17T17:49:52.812Z,24.16
2022-08-17T17:53:11.941Z,24.62
2022-08-17T17:56:43.169Z,25.41
2022-08-17T18:00:09.850Z,25.08
2022-08-17T18:03:30.459Z,24.16
2022-08-17T18:07:12.786Z,23.06
2022-08-17T18:10:44.917Z,22.14
2022-08-17T18:14:16.388Z,21.38
2022-08-17T18:17:18.488Z,20.71
2022-08-17T18:20:20.598Z,20.09
2022-08-17T18:23:38.175Z,19.64
2022-08-17T18:26:53.733Z,19.36
2022-08-17T18:29:59.757Z,20.34
2022-08-17T18:33:24.606Z,19.66
2022-08-17T18:36:34.171Z,20.50
2022-08-17T18:39:39.101Z,19.68
2022-08-17T18:42:41.251Z,19.80
2022-08-17T18:45:49.661Z,19.10
2022-08-17T18:49:04.479Z,19.02
2022-08-17T18:52:30.164Z,19.13
2022-08-17T18:55:32.532Z,19.00
2022-08-17T18:58:34.629Z,18.74
2022-08-17T19:01:59.709Z,18.14
2022-08-17T19:05:15.555Z,18.11
2022-08-17T19:08:26.199Z,18.10
2022-08-17T19:11:31.962Z,17.60
2022-08-17T19:14:34.066Z,17.59
2022-08-17T19:17:49.116Z,17.09
2022-08-17T19:21:03.502Z,17.20
2022-08-17T19:24:19.601Z,16.74
2022-08-17T19:27:41.317Z,16.73
2022-08-17T19:30:44.166Z,16.52
2022-08-17T19:33:47.984Z,16.24
2022-08-17T19:37:09.011Z,16.06
2022-08-17T19:40:54.515Z,16.09
2022-08-17T19:44:14.625Z,16.12
2022-08-17T19:47:53.861Z,16.16
2022-08-17T19:51:04.564Z,16.21
2022-08-17T19:54:55.784Z,15.96
2022-08-17T19:58:17.897Z,16.00
2022-08-17T20:01:38.220Z,15.50
2022-08-17T20:04:43.260Z,15.50
2022-08-17T20:08:17.703Z,15.53
2022-08-17T20:11:31.540Z,15.55
2022-08-17T20:14:53.645Z,15.68
2022-08-17T20:18:00.102Z,15.79
2022-08-17T20:21:19.806Z,15.80
2022-08-17T20:24:26.437Z,15.76
2022-08-17T20:27:31.898Z,15.77
2022-08-17T20:30:41.848Z,15.27
2022-08-17T20:33:43.987Z,15.22
2022-08-17T20:37:08.746Z,14.94
2022-08-17T20:40:14.708Z,14.96
2022-08-17T20:43:35.083Z,14.80
2022-08-17T20:46:37.497Z,14.67
2022-08-17T20:50:05.491Z,14.73
2022-08-17T20:53:10.051Z,14.80
2022-08-17T20:56:12.183Z,14.90
2022-08-17T20:59:34.515Z,14.87
2022-08-17T21:02:37.176Z,14.77
2022-08-17T21:06:09.405Z,15.20
2022-08-17T21:09:29.878Z,14.84
2022-08-17T21:12:52.266Z,14.86
2022-08-17T21:16:07.065Z,14.76
2022-08-17T21:19:31.056Z,14.51
2022-08-17T21:22:48.324Z,14.23
2022-08-17T21:26:02.567Z,14.60
2022-08-17T21:29:31.396Z,14.59
2022-08-17T21:32:37.768Z,14.83
2022-08-17T21:36:23.682Z,14.81
2022-08-17T21:39:33.768Z,14.84
2022-08-17T21:42:38.356Z,14.84
2022-08-17T21:45:41.248Z,14.91
2022-08-17T21:48:45.792Z,14.95
2022-08-17T21:51:56.600Z,14.89
2022-08-17T21:55:00.333Z,14.87
2022-08-17T21:58:27.705Z,14.94
2022-08-17T22:01:43.102Z,14.94
2022-08-17T22:05:04.891Z,14.89
2022-08-17T22:08:24.347Z,14.78
2022-08-17T22:11:26.459Z,14.54
2022-08-17T22:15:00.450Z,14.25
2022-08-17T22:18:05.820Z,14.29
2022-08-17T22:21:08.280Z,14.16
2022-08-17T22:24:20.376Z,13.84
2022-08-17T22:27:22.891Z,13.57
2022-08-17T22:30:43.272Z,13.36
2022-08-17T22:33:51.562Z,13.04
2022-08-17T22:37:30.540Z,13.87
2022-08-17T22:40:33.518Z,14.20
2022-08-17T22:43:36.221Z,14.43
2022-08-17T22:46:41.160Z,14.41
2022-08-17T22:49:53.117Z,14.76
2022-08-17T22:53:20.814Z,14.58
2022-08-17T22:56:42.895Z,14.64
2022-08-17T22:59:56.074Z,14.88
2022-08-17T23:03:14.661Z,14.72
2022-08-17T23:06:16.970Z,14.61
2022-08-17T23:09:19.118Z,14.43
2022-08-17T23:12:26.411Z,14.77
2022-08-17T23:15:33.886Z,14.97
2022-08-17T23:18:37.403Z,15.13
2022-08-17T23:21:39.571Z,15.12
2022-08-17T23:24:48.532Z,14.87
2022-08-17T23:27:50.877Z,15.17
2022-08-17T23:30:53.172Z,15.14
2022-08-17T23:33:55.576Z,14.85
2022-08-17T23:36:57.707Z,14.80
2022-08-17T23:40:00.295Z,14.89
2022-08-17T23:43:04.579Z,14.81
2022-08-17T23:46:13.732Z,14.74
2022-08-17T23:49:15.940Z,14.85
2022-08-17T23:52:18.223Z,14.85
2022-08-17T23:55:20.547Z,14.78
2022-08-17T23:58:22.785Z,14.97
